createdAt,value
2017-07-15T00:00:33.025Z,71.70
2017-07-15T00:03:02.333Z,71.70
2017-07-15T00:05:31.658Z,70.20
2017-07-15T00:08:00.980Z,71.00
2017-07-15T00:10:30.306Z,70.60
2017-07-15T00:12:59.634Z,71.60
2017-07-15T00:15:28.975Z,72.40
2017-07-15T00:17:59.064Z,73.70
2017-07-15T00:20:28.405Z,73.70
2017-07-15T00:22:57.729Z,74.30
2017-07-15T00:25:27.048Z,72.00
2017-07-15T00:27:56.377Z,73.30
2017-07-15T00:30:25.707Z,74.40
2017-07-15T00:32:55.802Z,73.70
2017-07-15T00:35:25.122Z,73.70
2017-07-15T00:37:54.458Z,72.90
2017-07-15T00:40:23.770Z,73.00
2017-07-15T00:42:53.106Z,73.10
2017-07-15T00:45:22.417Z,73.30
2017-07-15T00:47:51.755Z,74.60
2017-07-15T00:50:21.072Z,74.40
2017-07-15T00:52:50.401Z,73.80
2017-07-15T00:55:19.710Z,73.00
2017-07-15T00:57:49.047Z,73.20
2017-07-15T01:03:25.225Z,72.10
2017-07-15T01:05:54.548Z,71.80
2017-07-15T01:08:23.881Z,72.10
2017-07-15T01:10:53.974Z,71.80
2017-07-15T01:13:23.329Z,71.50
2017-07-15T01:15:52.637Z,71.10
2017-07-15T01:18:21.947Z,72.40
2017-07-15T01:20:51.279Z,72.10
2017-07-15T01:23:20.584Z,71.10
2017-07-15T01:25:49.909Z,71.30
2017-07-15T01:28:19.991Z,72.40
2017-07-15T01:30:49.318Z,72.40
2017-07-15T01:33:18.630Z,71.90
2017-07-15T01:35:47.957Z,71.80
2017-07-15T01:38:17.250Z,72.10
2017-07-15T01:40:46.573Z,71.20
2017-07-15T01:43:15.887Z,72.30
2017-07-15T01:45:45.225Z,72.30
2017-07-15T01:48:15.304Z,72.40
2017-07-15T01:50:44.625Z,72.30
2017-07-15T01:53:13.959Z,73.00
2017-07-15T01:55:44.029Z,70.60
2017-07-15T01:58:13.349Z,70.60
2017-07-15T02:00:42.655Z,71.00
2017-07-15T02:03:11.983Z,71.70
2017-07-15T02:05:42.061Z,70.70
2017-07-15T02:08:11.386Z,70.70
2017-07-15T02:10:40.696Z,70.50
2017-07-15T02:13:10.009Z,70.20
2017-07-15T02:15:39.310Z,70.90
2017-07-15T02:18:09.393Z,70.90
2017-07-15T02:20:38.702Z,70.80
2017-07-15T02:23:08.014Z,70.90
2017-07-15T02:25:37.314Z,71.60
2017-07-15T02:28:06.644Z,71.50
2017-07-15T02:30:35.949Z,70.60
2017-07-15T02:33:05.259Z,71.00
2017-07-15T02:35:34.576Z,71.30
2017-07-15T02:38:03.877Z,71.40
2017-07-15T02:40:33.195Z,70.80
2017-07-15T02:43:02.493Z,71.70
2017-07-15T02:45:31.824Z,70.40
2017-07-15T02:48:01.123Z,70.60
2017-07-15T02:50:30.501Z,70.80
2017-07-15T02:52:59.799Z,70.50
2017-07-15T02:55:29.129Z,70.90
2017-07-15T02:57:58.429Z,70.50
2017-07-15T03:00:27.768Z,71.00
2017-07-15T03:02:57.081Z,70.90
2017-07-15T03:05:26.393Z,70.30
2017-07-15T03:07:55.736Z,70.60
2017-07-15T03:10:25.044Z,70.00
2017-07-15T03:12:54.382Z,70.30
2017-07-15T03:15:23.710Z,69.10
2017-07-15T03:17:53.050Z,70.00
2017-07-15T03:20:23.121Z,70.20
2017-07-15T03:22:52.449Z,70.20
2017-07-15T03:25:21.765Z,69.70
2017-07-15T03:27:51.093Z,70.30
2017-07-15T03:30:20.404Z,70.50
2017-07-15T03:32:49.759Z,70.50
2017-07-15T03:35:19.069Z,71.10
2017-07-15T03:37:48.363Z,71.50
2017-07-15T03:40:17.694Z,72.40
2017-07-15T03:42:46.995Z,71.30
2017-07-15T03:45:17.098Z,71.40
2017-07-15T03:47:46.392Z,71.40
2017-07-15T03:50:15.719Z,71.10
2017-07-15T03:52:45.072Z,71.70
2017-07-15T03:55:14.392Z,71.30
2017-07-15T03:57:43.698Z,71.60
2017-07-15T04:00:13.025Z,71.20
2017-07-15T04:02:43.093Z,70.80
2017-07-15T04:05:12.424Z,70.80
2017-07-15T04:07:41.729Z,71.20
2017-07-15T04:10:11.061Z,70.70
2017-07-15T04:12:40.377Z,71.40
2017-07-15T04:15:09.737Z,70.10
2017-07-15T04:17:39.084Z,71.30
2017-07-15T04:20:08.402Z,71.20
2017-07-15T04:22:37.816Z,70.80
2017-07-15T04:25:07.136Z,70.90
2017-07-15T04:27:37.103Z,71.90
2017-07-15T04:30:06.558Z,71.60
2017-07-15T04:32:35.890Z,71.00
2017-07-15T04:35:05.229Z,71.40
2017-07-15T04:37:34.606Z,70.80
2017-07-15T04:40:03.933Z,70.50
2017-07-15T04:42:33.289Z,70.40
2017-07-15T04:45:02.599Z,70.00
2017-07-15T04:47:31.904Z,69.10
2017-07-15T04:50:01.236Z,68.70
2017-07-15T04:52:30.546Z,69.50
2017-07-15T04:54:59.878Z,68.80
2017-07-15T04:57:29.245Z,68.90
2017-07-15T04:59:58.577Z,68.50
2017-07-15T05:02:27.882Z,68.20
2017-07-15T05:04:57.209Z,69.60
2017-07-15T05:07:26.554Z,67.10
2017-07-15T05:09:55.885Z,66.90
2017-07-15T05:12:25.196Z,65.70
2017-07-15T05:14:54.602Z,65.20
2017-07-15T05:17:23.906Z,64.60
2017-07-15T05:19:54.036Z,63.70
2017-07-15T05:22:24.116Z,64.00
2017-07-15T05:24:53.421Z,64.00
2017-07-15T05:27:22.769Z,64.10
2017-07-15T05:29:52.084Z,64.40
2017-07-15T05:32:22.231Z,63.70
2017-07-15T05:34:51.544Z,63.70
2017-07-15T05:37:20.872Z,64.20
2017-07-15T05:39:50.200Z,64.90
2017-07-15T05:42:19.521Z,64.10
2017-07-15T05:44:48.921Z,60.60
2017-07-15T05:47:18.251Z,62.60
2017-07-15T05:49:47.555Z,59.70
2017-07-15T05:52:16.892Z,58.80
2017-07-15T05:54:46.219Z,57.10
2017-07-15T05:57:15.585Z,56.20
2017-07-15T05:59:44.949Z,56.50
2017-07-15T06:02:14.263Z,55.80
2017-07-15T06:04:52.565Z,55.50
2017-07-15T06:07:30.743Z,55.30
2017-07-15T06:12:50.166Z,54.40
2017-07-15T06:15:25.603Z,54.90
2017-07-15T06:18:00.365Z,51.50
2017-07-15T06:20:40.199Z,51.90
2017-07-15T06:23:17.924Z,52.20
2017-07-15T06:25:50.030Z,52.60
2017-07-15T06:28:22.951Z,51.70
2017-07-15T06:30:55.556Z,51.70
2017-07-15T06:33:34.847Z,52.00
2017-07-15T06:36:10.111Z,52.30
2017-07-15T06:38:48.153Z,53.40
2017-07-15T06:41:27.365Z,53.30
2017-07-15T06:44:01.149Z,54.40
2017-07-15T06:46:33.808Z,55.00
2017-07-15T06:49:10.527Z,55.50
2017-07-15T06:51:46.519Z,55.70
2017-07-15T06:54:25.605Z,55.10
2017-07-15T06:57:00.402Z,55.60
2017-07-15T06:59:33.995Z,55.60
2017-07-15T07:02:09.498Z,55.10
2017-07-15T07:04:40.235Z,54.90
2017-07-15T07:07:09.612Z,53.80
2017-07-15T07:09:38.930Z,53.00
2017-07-15T07:12:08.286Z,52.90
2017-07-15T07:14:37.593Z,51.40
2017-07-15T07:17:06.924Z,51.70
2017-07-15T07:19:36.241Z,52.00
2017-07-15T07:22:06.554Z,52.50
2017-07-15T07:24:35.877Z,50.60
2017-07-15T07:27:05.245Z,51.10
2017-07-15T07:29:34.557Z,51.50
2017-07-15T07:32:03.884Z,50.80
2017-07-15T07:34:33.186Z,51.40
2017-07-15T07:37:14.096Z,51.40
2017-07-15T07:39:55.299Z,51.60
2017-07-15T07:42:33.230Z,52.60
2017-07-15T07:45:08.349Z,52.90
2017-07-15T07:47:43.193Z,52.70
2017-07-15T07:53:11.298Z,50.60
2017-07-15T07:55:53.810Z,50.50
2017-07-15T07:58:35.272Z,50.50
2017-07-15T08:01:15.594Z,50.50
2017-07-15T08:03:57.995Z,50.50
2017-07-15T08:06:38.234Z,51.00
2017-07-15T08:09:13.225Z,49.70
2017-07-15T08:11:51.757Z,49.00
2017-07-15T08:14:34.067Z,49.00
2017-07-15T08:17:13.380Z,48.70
2017-07-15T08:19:50.258Z,50.00
2017-07-15T08:22:24.608Z,48.50
2017-07-15T08:25:02.125Z,48.70
2017-07-15T08:27:40.932Z,48.00
2017-07-15T08:30:16.588Z,48.20
2017-07-15T08:32:51.926Z,47.20
2017-07-15T08:35:31.366Z,47.30
2017-07-15T08:38:09.180Z,47.70
2017-07-15T08:40:48.926Z,48.70
2017-07-15T08:43:32.790Z,48.20
2017-07-15T08:46:11.631Z,48.30
2017-07-15T08:49:08.197Z,48.30
2017-07-15T08:51:44.432Z,46.20
2017-07-15T08:54:22.094Z,46.10
2017-07-15T08:57:00.279Z,45.00
2017-07-15T08:59:40.787Z,45.20
2017-07-15T09:02:16.606Z,45.70
2017-07-15T09:04:54.187Z,45.10
2017-07-15T09:07:30.394Z,45.00
2017-07-15T09:10:12.842Z,45.00
2017-07-15T09:12:55.028Z,44.50
2017-07-15T09:15:29.572Z,44.50
2017-07-15T09:18:04.410Z,45.20
2017-07-15T09:20:46.362Z,44.90
2017-07-15T09:23:24.291Z,44.90
2017-07-15T09:26:05.189Z,44.30
2017-07-15T09:28:47.032Z,44.10
2017-07-15T09:31:26.790Z,44.50
2017-07-15T09:34:07.055Z,44.30
2017-07-15T09:36:53.665Z,43.10
2017-07-15T09:39:33.994Z,44.80
2017-07-15T09:42:10.209Z,46.20
2017-07-15T09:44:53.541Z,45.60
2017-07-15T09:47:26.754Z,44.80
2017-07-15T09:50:05.805Z,44.40
2017-07-15T09:52:45.247Z,45.10
2017-07-15T09:55:21.137Z,45.20
2017-07-15T09:57:58.723Z,44.80
2017-07-15T10:00:33.338Z,44.10
2017-07-15T10:03:14.183Z,42.90
2017-07-15T10:05:50.814Z,43.10
2017-07-15T10:08:29.604Z,42.80
2017-07-15T10:11:08.457Z,44.20
2017-07-15T10:13:45.086Z,43.60
2017-07-15T10:16:29.048Z,42.90
2017-07-15T10:19:07.072Z,44.40
2017-07-15T10:21:43.596Z,43.30
2017-07-15T10:24:19.989Z,43.80
2017-07-15T10:26:53.876Z,44.70
2017-07-15T10:29:30.666Z,44.20
2017-07-15T10:35:08.304Z,42.70
2017-07-15T10:37:51.716Z,43.70
2017-07-15T10:40:33.019Z,42.50
2017-07-15T10:43:19.770Z,42.10
2017-07-15T10:45:58.956Z,42.60
2017-07-15T10:48:45.749Z,42.60
2017-07-15T10:51:29.795Z,42.80
2017-07-15T10:54:12.316Z,42.30
2017-07-15T10:56:51.912Z,42.30
2017-07-15T10:59:35.482Z,43.30
2017-07-15T11:02:13.853Z,44.10
2017-07-15T11:04:54.576Z,44.10
2017-07-15T11:07:32.592Z,42.60
2017-07-15T11:10:10.247Z,41.30
2017-07-15T12:34:43.347Z,41.40
2017-07-15T12:37:13.442Z,39.40
2017-07-15T12:39:43.058Z,39.40
2017-07-15T12:42:13.170Z,41.10
2017-07-15T12:44:42.510Z,41.10
2017-07-15T12:47:11.838Z,40.40
2017-07-15T12:49:41.159Z,39.50
2017-07-15T12:52:10.487Z,39.80
2017-07-15T12:54:39.873Z,40.80
2017-07-15T12:57:10.176Z,39.40
2017-07-15T12:59:40.345Z,39.50
2017-07-15T13:02:10.558Z,38.30
2017-07-15T13:04:39.917Z,38.30
2017-07-15T13:07:09.240Z,38.80
2017-07-15T13:09:38.554Z,39.00
2017-07-15T13:12:07.897Z,39.50
2017-07-15T13:14:37.210Z,40.00
2017-07-15T13:17:06.533Z,39.00
2017-07-15T13:19:35.888Z,39.20
2017-07-15T13:22:05.973Z,38.40
2017-07-15T13:24:35.297Z,38.40
2017-07-15T13:27:05.381Z,38.60
2017-07-15T13:29:34.709Z,38.60
2017-07-15T13:32:04.045Z,39.60
2017-07-15T13:34:33.374Z,37.80
2017-07-15T13:37:02.678Z,38.90
2017-07-15T13:39:32.003Z,38.20
2017-07-15T13:42:01.306Z,38.40
2017-07-15T13:44:30.649Z,37.40
2017-07-15T13:47:00.095Z,37.80
2017-07-15T13:49:29.436Z,38.20
2017-07-15T13:52:00.175Z,37.90
2017-07-15T13:54:30.298Z,38.00
2017-07-15T13:57:00.384Z,39.00
2017-07-15T13:59:29.717Z,38.40
2017-07-15T14:01:59.062Z,38.90
2017-07-15T14:04:28.411Z,39.80
2017-07-15T14:06:57.731Z,39.50
2017-07-15T14:09:27.817Z,40.10
2017-07-15T14:11:57.157Z,40.10
2017-07-15T14:14:26.497Z,39.80
2017-07-15T14:16:55.806Z,39.00
2017-07-15T14:19:25.124Z,39.00
2017-07-15T14:21:54.449Z,39.10
2017-07-15T14:24:23.772Z,39.30
2017-07-15T14:26:53.117Z,38.20
2017-07-15T14:29:22.429Z,39.10
2017-07-15T14:31:51.770Z,38.50
2017-07-15T14:34:21.117Z,38.80
2017-07-15T14:36:50.443Z,39.60
2017-07-15T14:39:19.758Z,38.00
2017-07-15T14:41:49.188Z,38.40
2017-07-15T14:44:18.550Z,37.80
2017-07-15T14:46:47.882Z,39.10
2017-07-15T14:49:17.220Z,37.60
2017-07-15T14:51:46.533Z,37.20
2017-07-15T14:54:15.869Z,39.10
2017-07-15T14:56:45.946Z,37.50
2017-07-15T14:59:15.317Z,37.50
2017-07-15T15:01:44.641Z,36.20
2017-07-15T15:04:13.977Z,37.70
2017-07-15T15:06:43.301Z,38.40
2017-07-15T15:09:13.398Z,37.70
2017-07-15T15:11:42.713Z,37.70
2017-07-15T15:14:12.036Z,38.60
2017-07-15T15:16:41.359Z,38.30
2017-07-15T15:19:11.473Z,38.30
2017-07-15T15:21:40.785Z,38.70
2017-07-15T15:24:10.125Z,37.50
2017-07-15T15:26:39.434Z,38.00
2017-07-15T15:29:08.742Z,37.40
2017-07-15T15:31:38.106Z,37.70
2017-07-15T15:34:07.410Z,38.00
2017-07-15T15:36:36.798Z,37.60
2017-07-15T15:39:06.163Z,38.90
2017-07-15T15:41:36.278Z,37.80
2017-07-15T15:44:06.365Z,37.30
2017-07-15T15:46:35.701Z,37.30
2017-07-15T15:49:05.049Z,38.10
2017-07-15T15:51:34.370Z,37.80
2017-07-15T15:54:03.714Z,38.70
2017-07-15T15:56:33.040Z,38.50
2017-07-15T15:59:02.346Z,39.30
2017-07-15T16:01:31.700Z,38.50
2017-07-15T16:04:01.004Z,38.70
2017-07-15T16:06:30.348Z,38.90
2017-07-15T16:08:59.682Z,38.70
2017-07-15T16:11:28.996Z,38.70
2017-07-15T16:13:59.205Z,37.50
2017-07-15T16:16:28.547Z,37.50
2017-07-15T16:18:57.872Z,37.40
2017-07-15T16:21:27.213Z,38.00
2017-07-15T16:23:57.301Z,38.10
2017-07-15T16:26:26.601Z,38.10
2017-07-15T16:28:55.938Z,38.90
2017-07-15T16:31:26.065Z,38.40
2017-07-15T16:33:56.165Z,38.40
2017-07-15T16:36:25.497Z,38.40
2017-07-15T16:38:55.600Z,38.70
2017-07-15T16:41:25.672Z,37.60
2017-07-15T16:43:55.013Z,37.60
2017-07-15T16:46:24.349Z,38.00
2017-07-15T16:48:53.679Z,37.90
2017-07-15T16:51:23.854Z,38.30
2017-07-15T16:53:53.180Z,39.00
2017-07-15T16:56:22.501Z,38.10
2017-07-15T16:58:51.813Z,38.40
2017-07-15T17:01:21.166Z,38.40
2017-07-15T17:03:50.472Z,38.30
2017-07-15T17:06:19.835Z,38.40
2017-07-15T17:08:49.161Z,38.10
2017-07-15T17:11:18.500Z,37.20
2017-07-15T17:13:47.817Z,38.00
2017-07-15T17:16:17.145Z,37.00
2017-07-15T17:18:46.501Z,38.70
2017-07-15T17:21:15.843Z,38.70
2017-07-15T17:23:45.145Z,39.20
2017-07-15T17:26:14.482Z,39.20
2017-07-15T17:28:44.566Z,40.10
2017-07-15T17:31:14.318Z,40.00
2017-07-15T17:33:44.417Z,40.50
2017-07-15T17:36:14.513Z,39.80
2017-07-15T17:38:43.842Z,39.50
2017-07-15T17:41:13.943Z,39.80
2017-07-15T17:43:43.278Z,39.80
2017-07-15T17:46:12.601Z,39.90
2017-07-15T17:48:41.936Z,40.80
2017-07-15T17:51:11.326Z,41.30
2017-07-15T17:53:40.645Z,41.90
2017-07-15T17:56:09.950Z,42.50
2017-07-15T17:58:39.293Z,42.80
2017-07-15T18:01:08.602Z,42.70
2017-07-15T18:03:37.968Z,42.10
2017-07-15T18:06:08.064Z,42.60
2017-07-15T18:08:37.402Z,43.00
2017-07-15T18:11:07.480Z,42.60
2017-07-15T18:13:36.824Z,42.60
2017-07-15T18:16:06.929Z,42.00
2017-07-15T18:18:36.248Z,42.00
2017-07-15T18:21:06.733Z,41.70
2017-07-15T18:23:36.070Z,41.70
2017-07-15T18:26:05.416Z,42.00
2017-07-15T18:28:34.737Z,41.80
2017-07-15T18:31:04.062Z,42.40
2017-07-15T18:33:33.401Z,42.10
2017-07-15T18:36:03.427Z,41.60
2017-07-15T18:38:32.777Z,42.20
2017-07-15T18:41:02.087Z,42.20
2017-07-15T18:43:32.221Z,42.40
2017-07-15T18:46:02.309Z,43.00
2017-07-15T18:48:31.626Z,43.00
2017-07-15T18:51:00.958Z,43.20
2017-07-15T18:53:30.295Z,43.40
2017-07-15T18:55:59.610Z,43.50
2017-07-15T18:58:28.968Z,43.70
2017-07-15T19:00:58.292Z,44.00
2017-07-15T19:03:27.637Z,44.00
2017-07-15T19:05:57.005Z,44.00
2017-07-15T19:08:26.328Z,44.00
2017-07-15T19:10:55.665Z,44.00
2017-07-15T19:13:25.761Z,43.90
2017-07-15T19:15:55.089Z,43.90
2017-07-15T19:18:24.530Z,43.90
2017-07-15T19:20:53.858Z,44.00
2017-07-15T19:23:23.161Z,44.30
2017-07-15T19:25:52.557Z,44.00
2017-07-15T19:28:21.894Z,44.20
2017-07-15T19:30:51.249Z,44.20
2017-07-15T19:33:21.366Z,44.50
2017-07-15T19:35:50.904Z,44.70
2017-07-15T19:38:20.225Z,44.40
2017-07-15T19:40:50.320Z,45.30
2017-07-15T19:43:19.643Z,45.30
2017-07-15T19:45:49.800Z,46.50
2017-07-15T19:48:19.175Z,46.40
2017-07-15T19:50:49.271Z,47.40
2017-07-15T19:53:18.606Z,47.40
2017-07-15T19:55:47.944Z,47.00
2017-07-15T19:58:17.274Z,47.80
2017-07-15T20:00:46.585Z,48.70
2017-07-15T20:03:15.953Z,48.90
2017-07-15T20:05:45.260Z,49.10
2017-07-15T20:08:14.602Z,48.90
2017-07-15T20:10:44.688Z,50.20
2017-07-15T20:13:14.026Z,50.10
2017-07-15T20:15:44.314Z,50.10
2017-07-15T20:18:13.718Z,50.10
2017-07-15T20:20:43.179Z,50.40
2017-07-15T20:23:12.488Z,50.60
2017-07-15T20:25:41.972Z,50.60
2017-07-15T20:28:12.072Z,51.10
2017-07-15T20:30:41.414Z,51.10
2017-07-15T20:33:10.725Z,51.20
2017-07-15T20:35:40.112Z,51.50
2017-07-15T20:38:09.414Z,51.70
2017-07-15T20:40:38.738Z,51.70
2017-07-15T20:43:08.063Z,51.80
2017-07-15T20:45:37.410Z,52.20
2017-07-15T20:48:06.724Z,52.20
2017-07-15T20:50:36.080Z,52.40
2017-07-15T20:53:10.983Z,52.50
2017-07-15T20:55:40.323Z,52.80
2017-07-15T20:58:09.666Z,52.80
2017-07-15T21:00:39.020Z,52.20
2017-07-15T21:03:08.375Z,52.40
2017-07-15T21:05:37.686Z,52.80
2017-07-15T21:08:07.023Z,53.60
2017-07-15T21:10:36.347Z,53.60
2017-07-15T21:13:05.706Z,53.00
2017-07-15T21:15:35.034Z,53.30
2017-07-15T21:18:04.374Z,53.70
2017-07-15T21:20:33.686Z,53.90
2017-07-15T21:23:03.018Z,54.00
2017-07-15T21:25:32.342Z,54.60
2017-07-15T21:28:02.444Z,54.40
2017-07-15T21:30:31.790Z,54.10
2017-07-15T21:33:01.125Z,54.90
2017-07-15T21:35:30.529Z,55.10
2017-07-15T21:37:59.889Z,55.20
2017-07-15T21:40:29.977Z,55.10
2017-07-15T21:42:59.312Z,55.00
2017-07-15T21:45:28.653Z,55.60
2017-07-15T21:47:57.964Z,55.40
2017-07-15T21:50:27.296Z,56.00
2017-07-15T21:52:56.630Z,55.60
2017-07-15T21:55:25.957Z,55.60
2017-07-15T21:57:55.272Z,55.90
2017-07-15T22:00:24.626Z,55.80
2017-07-15T22:02:53.939Z,56.00
2017-07-15T22:05:24.240Z,56.20
2017-07-15T22:07:53.723Z,56.50
2017-07-15T22:10:23.770Z,56.10
2017-07-15T22:13:08.654Z,56.40
2017-07-15T22:15:38.156Z,56.40
2017-07-15T22:18:07.465Z,56.60
2017-07-15T22:20:36.869Z,56.40
2017-07-15T22:23:06.232Z,56.40
2017-07-15T22:25:35.554Z,56.40
2017-07-15T22:28:04.877Z,56.60
2017-07-15T22:30:34.201Z,56.70
2017-07-15T22:33:03.577Z,56.70
2017-07-15T22:35:32.905Z,57.00
2017-07-15T22:38:02.240Z,57.30
2017-07-15T22:40:31.563Z,57.60
2017-07-15T22:43:00.884Z,57.80
2017-07-15T22:45:30.197Z,57.80
2017-07-15T22:47:59.601Z,57.80
2017-07-15T22:50:28.964Z,57.80
2017-07-15T22:52:58.302Z,58.30
2017-07-15T22:55:27.618Z,58.10
2017-07-15T22:57:57.013Z,58.00
2017-07-15T23:00:26.334Z,58.40
2017-07-15T23:02:55.762Z,58.40
2017-07-15T23:05:25.186Z,58.30
2017-07-15T23:07:55.449Z,58.40
2017-07-15T23:10:24.778Z,58.50
2017-07-15T23:12:54.871Z,58.50
2017-07-15T23:15:24.200Z,58.50
2017-07-15T23:17:54.275Z,59.50
2017-07-15T23:20:23.616Z,58.80
2017-07-15T23:22:52.922Z,59.10
2017-07-15T23:25:23.029Z,59.40
2017-07-15T23:27:52.359Z,59.40
2017-07-15T23:30:22.453Z,59.40
2017-07-15T23:32:51.784Z,59.40
2017-07-15T23:35:21.096Z,59.60
2017-07-15T23:37:50.461Z,59.70
2017-07-15T23:40:19.777Z,59.90
2017-07-15T23:42:49.117Z,59.90
2017-07-15T23:45:18.421Z,59.90
2017-07-15T23:47:47.757Z,60.10
2017-07-15T23:50:17.076Z,60.00
2017-07-15T23:52:47.185Z,60.10
2017-07-15T23:55:16.541Z,60.10
2017-07-15T23:57:45.845Z,60.00
